Dyer Cove, ME

2:21 AM EDT on April 26, 2017 (GMT -0400)
Harpswell Town Office | | Change Station

Elev 60 ft 43.81 °N, 69.94 °W | Updated 41 seconds ago

Light Rain
Light Rain Mist
46.2 °F
Feels Like 44 °F
N
4.0
Wind Variable Wind from SSE
Gusts 12.0 mph

Today
High -- | Low -- °F
--% Chance of Precip.
Yesterday
High -- | Low -- °F
Precip. -- in
Pressure 30.14 in
Visibility 3.0 miles
Clouds Overcast 600 ft
Windchill 44 °F
Dew Point 27.1 °F
Humidity 47%
Rainfall 0.27 in
Snow Depth Not available.
5:38 AM 7:36 PM
Waning Crescent, 0% visible
METAR KIWI 260553Z AUTO 07008KT 030V100 3SM -RA BR OVC006 08/07 A3014 RMK AO2 SLP207 P0008 60022 T00830072 10083 20067 57032
Pressure 30.14 in
Visibility 3.0 miles
Clouds Overcast 600 ft
Windchill 44 °F
Dew Point 27.1 °F
Humidity 47%
Rainfall 0.27 in
Snow Depth Not available.
5:38 AM 7:36 PM
Waning Crescent, 0% visible
METAR KIWI 260553Z AUTO 07008KT 030V100 3SM -RA BR OVC006 08/07 A3014 RMK AO2 SLP207 P0008 60022 T00830072 10083 20067 57032

Get Severe Weather Alerts

Thanks for signing up!

Be on the lookout for a verification email in your inbox.

You'll start receiving the daily forecast at 8 AM.

×

10-Day Weather Forecast

Almanac

Astronomy

Apr. 26, 2017 Rise Set
Actual Time
Civil Twilight
Nautical Twilight
Astronomical Twilight
Moon
Length of Visible Light
Length of Day
Tomorrow will be .
, % of the Moon is Illuminated

Today's Extremes

State Highs State Lows

Community

WunderPhotos

WunderBlog® & News

Nearby

Air Quality

  Air Quality AQ Index Pollutant
Not available.

Snow Depth

Station Depth Elevation

Earthquake Activity

City Distance Mag. Time & Date
Minimum magnitude displayed is 2.5.

Coastal Water Temperatures

Place Temperature

Stations

Nearby Weather Stations

Station Location Temp. Windchill Dew Point Humidity Wind Precip. Elev Updated Type
                   

Watches & Warnings

There are currently no watches in effect.